Zenith Leader — 2ACU6 — position and weather

sailwx.info

Track history (hours):
 
Tides and Currents Weather Stations Pressure Air Temp Water Temp Dewpoint Dewpoint Depression Visibility Wind Speed Wind Dir Waves Ship Positions

Zenith Leader

Last reported at 2015-Apr-24 23:32 UTC. Time now 2015-Apr-25 00:27 UTC.
Position N 53°35' E 008°33'.

Length 199 m; draft 8.8 m.

Type: Cargo ship. MMSI: 235058697.

Date/timePositionNaut miles runAvg speedWind from/ knotsBaromVisibWave heightAir tempDewpointWater temp
2015-Apr-24 23:32N 53°35' E 008°33'0 0.0
2015-Apr-24 22:33N 53°35' E 008°33'0 0.0
2015-Apr-24 21:33N 53°35' E 008°33'0 0.0
2015-Apr-24 20:33N 53°35' E 008°33'0 0.0
2015-Apr-24 19:33N 53°35' E 008°33'0 0.0
2015-Apr-24 18:33N 53°35' E 008°33'0 0.0
2015-Apr-24 17:33N 53°35' E 008°33'0 0.0
2015-Apr-24 16:33N 53°35' E 008°33'0 0.0
2015-Apr-24 15:33N 53°35' E 008°33'0 0.0
2015-Apr-24 14:33N 53°35' E 008°33'0 0.0
2015-Apr-24 13:33N 53°35' E 008°33'0 0.0
2015-Apr-24 12:33N 53°35' E 008°33'0 0.0
2015-Apr-24 11:33N 53°35' E 008°33'0 0.0
2015-Apr-24 10:33N 53°35' E 008°33'0 0.0
2015-Apr-24 09:33N 53°35' E 008°33'0 0.0
2015-Apr-24 08:33N 53°35' E 008°33'0 0.0
2015-Apr-24 07:33N 53°35' E 008°33'0 0.0
2015-Apr-24 06:33N 53°35' E 008°33'0 0.0
2015-Apr-24 05:33N 53°35' E 008°33'0 0.0
2015-Apr-24 04:33N 53°35' E 008°33'0 0.0
2015-Apr-24 03:33N 53°35' E 008°33'0 0.0
2015-Apr-24 02:33N 53°35' E 008°33'0 0.0
2015-Apr-24 01:33N 53°35' E 008°33'0 0.0
2015-Apr-24 00:33N 53°35' E 008°33'0 0.0
2015-Apr-23 23:33N 53°35' E 008°33'0 0.0
2015-Apr-23 22:33N 53°35' E 008°33'0 0.0
2015-Apr-23 21:33N 53°35' E 008°33'0 0.0
2015-Apr-23 20:33N 53°35' E 008°33'0 0.0
2015-Apr-23 19:33N 53°35' E 008°33'0 0.0
2015-Apr-23 18:34N 53°35' E 008°33'0 0.0
2015-Apr-23 17:33N 53°35' E 008°33'0 0.0
2015-Apr-23 16:33N 53°35' E 008°33'0 0.0
2015-Apr-23 15:33N 53°35' E 008°33'0 0.0
2015-Apr-23 14:33N 53°35' E 008°33'0 0.3
2015-Apr-23 13:33N 53°34' E 008°34'0 0.0
2015-Apr-23 12:33N 53°35' E 008°34'0 0.0
2015-Apr-23 11:33N 53°35' E 008°34'0 0.0
2015-Apr-23 10:33N 53°35' E 008°34'0 0.0
2015-Apr-23 09:33N 53°35' E 008°34'0 0.0
2015-Apr-23 08:33N 53°35' E 008°34'0 0.0
2015-Apr-23 07:33N 53°35' E 008°34'0 0.0
2015-Apr-23 06:33N 53°35' E 008°34'0 0.0
2015-Apr-23 05:33N 53°35' E 008°34'0 0.0
2015-Apr-23 04:33N 53°35' E 008°34'0 0.0
2015-Apr-23 03:33N 53°35' E 008°34'0 0.0
2015-Apr-23 02:33N 53°35' E 008°34'0 0.0
2015-Apr-23 01:33N 53°35' E 008°34'0 0.0
2015-Apr-23 00:33N 53°35' E 008°34'0 0.0
2015-Apr-22 23:33N 53°35' E 008°34'0 0.0
2015-Apr-22 22:33N 53°35' E 008°34'0 0.0
2015-Apr-22 21:33N 53°35' E 008°34'0 0.0
2015-Apr-22 20:33N 53°35' E 008°34'0 0.5
2015-Apr-22 19:33N 53°34' E 008°33'2 1.5
2015-Apr-22 18:33N 53°35' E 008°31'9 9.3
2015-Apr-22 17:33N 53°42' E 008°20'1211.8
2015-Apr-22 16:33N 53°50' E 008°05'1111.2
2015-Apr-22 15:34N 53°52' E 007°47'3 3.4
2015-Apr-22 14:33N 53°52' E 007°41'1 1.2
2015-Apr-22 13:33N 53°53' E 007°40'6 6.1
2015-Apr-22 12:33N 53°55' E 007°30'1212.0
2015-Apr-22 11:33N 53°52' E 007°11'1514.7
2015-Apr-22 10:33N 53°48' E 006°46'1514.6
2015-Apr-22 09:31N 53°45' E 006°22'1414.1
2015-Apr-22 08:33N 53°41' E 005°60'1414.4
2015-Apr-22 07:33N 53°36' E 005°37'1514.6
2015-Apr-22 06:33N 53°31' E 005°14'1514.6
2015-Apr-22 05:33N 53°26' E 004°51'1313.3
2015-Apr-22 04:33N 53°15' E 004°36'1313.4
2015-Apr-22 03:33N 53°04' E 004°25'1413.4
2015-Apr-22 02:32N 52°52' E 004°15'1313.4
2015-Apr-22 01:32N 52°42' E 004°00'1313.3
2015-Apr-22 00:33N 52°32' E 003°46'1313.1
2015-Apr-21 23:33N 52°23' E 003°30'1312.8
2015-Apr-21 22:33N 52°14' E 003°15'1212.5
2015-Apr-21 21:33N 52°05' E 003°01'1312.8
2015-Apr-21 20:33N 51°54' E 002°50'1212.3
2015-Apr-21 19:33N 51°46' E 002°36'1514.5
2015-Apr-21 18:34N 51°34' E 002°22'1313.0
2015-Apr-21 17:33N 51°22' E 002°14'1413.8
2015-Apr-21 16:33N 51°23' E 002°36'1010.2
2015-Apr-21 15:33N 51°25' E 002°52'1010.1
2015-Apr-21 14:33N 51°24' E 003°09'4 4.4
2015-Apr-21 13:33N 51°20' E 003°13'0 0.2
2015-Apr-21 12:33N 51°20' E 003°13'2 2.0
2015-Apr-21 11:33N 51°18' E 003°14'0 0.0
2015-Apr-21 10:33N 51°18' E 003°14'0 0.0
2015-Apr-21 09:33N 51°18' E 003°14'0 0.0
2015-Apr-21 08:33N 51°18' E 003°14'0 0.0
2015-Apr-21 07:33N 51°18' E 003°14'0 0.0
2015-Apr-21 06:33N 51°18' E 003°14'0 0.0
2015-Apr-21 05:33N 51°18' E 003°14'0 0.0
2015-Apr-21 04:33N 51°18' E 003°14'0 0.0
2015-Apr-21 03:33N 51°18' E 003°14'0 0.0
2015-Apr-21 02:33N 51°18' E 003°14'0 0.0
2015-Apr-21 01:30N 51°18' E 003°14'0 0.0
2015-Apr-21 00:33N 51°18' E 003°14'0 0.0
2015-Apr-20 23:33N 51°18' E 003°14'0 0.0
2015-Apr-20 22:33N 51°18' E 003°14'0 0.0
2015-Apr-20 21:33N 51°18' E 003°14'0 0.0
2015-Apr-20 19:33N 51°18' E 003°14'0 0.0
2015-Apr-20 18:27N 51°18' E 003°14'0 0.0
2015-Apr-20 17:33N 51°18' E 003°14'0 0.0
2015-Apr-20 16:33N 51°18' E 003°14'0 0.2
2015-Apr-20 15:33N 51°18' E 003°14'0 0.2
2015-Apr-20 14:32N 51°18' E 003°14'0 0.0
2015-Apr-20 13:30N 51°18' E 003°14'0 0.0
2015-Apr-20 12:32N 51°18' E 003°14'0 0.0
2015-Apr-20 11:32N 51°18' E 003°14'0 0.0
2015-Apr-20 10:32N 51°18' E 003°14'0 0.0
2015-Apr-20 09:32N 51°18' E 003°14'0 0.0
2015-Apr-20 08:32N 51°18' E 003°14'0 0.0
2015-Apr-20 07:32N 51°18' E 003°14'0 0.0
2015-Apr-20 06:33N 51°18' E 003°14'0 0.0
2015-Apr-20 05:32N 51°18' E 003°14'0 0.0
2015-Apr-20 04:32N 51°18' E 003°14'0 0.0
2015-Apr-20 03:32N 51°18' E 003°14'0 0.0
2015-Apr-20 02:32N 51°18' E 003°14'2 1.6
2015-Apr-20 01:33N 51°20' E 003°13'0 0.0
2015-Apr-20 00:33N 51°20' E 003°13'6 5.9
2015-Apr-19 23:33N 51°24' E 003°06'1313.3
2015-Apr-19 22:33N 51°21' E 002°45'9 8.8
2015-Apr-19 21:33N 51°22' E 002°31'1313.2
2015-Apr-19 20:33N 51°15' E 002°13'1413.5
2015-Apr-19 19:33N 51°09' E 001°54'1313.3
2015-Apr-19 18:34N 51°00' E 001°37'1313.1
2015-Apr-19 17:33N 50°50' E 001°25'1413.9
2015-Apr-19 16:32N 50°38' E 001°13'  
2015-Apr-17 07:30N 50°57' W 006°16'12511.4
2015-Apr-16 20:34N 51°25' W 003°02'1212.5
2015-Apr-16 19:33N 51°30' W 002°44'0 0.4
2015-Apr-16 18:33N 51°30' W 002°43'0 0.0
2015-Apr-16 17:33N 51°30' W 002°43'0 0.0
2015-Apr-16 16:33N 51°30' W 002°43'0 0.0
2015-Apr-16 15:33N 51°30' W 002°43'0 0.0
2015-Apr-16 14:33N 51°30' W 002°43'0 0.0
2015-Apr-16 13:33N 51°30' W 002°43'0 0.0
2015-Apr-16 12:33N 51°30' W 002°43'0 0.0
2015-Apr-16 11:33N 51°30' W 002°43'0 0.0
2015-Apr-16 10:33N 51°30' W 002°43'0 0.0
2015-Apr-16 09:33N 51°30' W 002°43'0 0.0
2015-Apr-16 08:33N 51°30' W 002°43'0 0.0
2015-Apr-16 07:33N 51°30' W 002°43'0 0.0
2015-Apr-16 06:33N 51°30' W 002°43'1 0.8
2015-Apr-16 05:33N 51°30' W 002°44'10 9.8
2015-Apr-16 04:33N 51°27' W 002°59'1413.5
2015-Apr-16 03:33N 51°20' W 003°18'38 8.7
2015-Apr-15 23:14N 51°19' W 004°18'2011.7
2015-Apr-15 21:30N 51°19' W 004°51'1210.7
2015-Apr-15 20:24N 51°14' W 005°08'910.8
2015-Apr-15 19:33N 51°09' W 005°19'1110.6
2015-Apr-15 18:33N 51°02' W 005°33'1110.6
2015-Apr-15 17:34N 50°56' W 005°46'1212.0
2015-Apr-15 16:33N 50°48' W 006°01'1212.5
2015-Apr-15 15:33N 50°41' W 006°17'1412.7
2015-Apr-15 14:29N 50°32' W 006°34'1212.7
2015-Apr-15 13:33N 50°22' W 006°43'1313.1
2015-Apr-15 12:33N 50°10' W 006°49'1313.0
2015-Apr-15 11:33N 49°57' W 006°57'1312.7
2015-Apr-15 10:33N 49°46' W 007°03'1212.3
2015-Apr-15 09:33N 49°34' W 007°10'1212.0
2015-Apr-15 08:33N 49°23' W 007°16'1211.7
2015-Apr-15 07:34N 49°12' W 007°23'1211.6
2015-Apr-15 06:33N 49°01' W 007°29'  
Track history (hours):
 
Tides and Currents Weather Stations Pressure Air Temp Water Temp Dewpoint Dewpoint Depression Visibility Wind Speed Wind Dir Waves Ship Positions

Zenith Leader

Last reported at 2015-Apr-24 23:32 UTC. Time now 2015-Apr-25 00:27 UTC.
Position N 53°35' E 008°33'.

Length 199 m; draft 8.8 m.

Type: Cargo ship. MMSI: 235058697.

Date/timePositionNaut miles runAvg speedWind from/ knotsBaromVisibWave heightAir tempDewpointWater temp
2015-Apr-24 23:32N 53°35' E 008°33'0 0.0
2015-Apr-24 22:33N 53°35' E 008°33'0 0.0
2015-Apr-24 21:33N 53°35' E 008°33'0 0.0
2015-Apr-24 20:33N 53°35' E 008°33'0 0.0
2015-Apr-24 19:33N 53°35' E 008°33'0 0.0
2015-Apr-24 18:33N 53°35' E 008°33'0 0.0
2015-Apr-24 17:33N 53°35' E 008°33'0 0.0
2015-Apr-24 16:33N 53°35' E 008°33'0 0.0
2015-Apr-24 15:33N 53°35' E 008°33'0 0.0
2015-Apr-24 14:33N 53°35' E 008°33'0 0.0
2015-Apr-24 13:33N 53°35' E 008°33'0 0.0
2015-Apr-24 12:33N 53°35' E 008°33'0 0.0
2015-Apr-24 11:33N 53°35' E 008°33'0 0.0
2015-Apr-24 10:33N 53°35' E 008°33'0 0.0
2015-Apr-24 09:33N 53°35' E 008°33'0 0.0
2015-Apr-24 08:33N 53°35' E 008°33'0 0.0
2015-Apr-24 07:33N 53°35' E 008°33'0 0.0
2015-Apr-24 06:33N 53°35' E 008°33'0 0.0
2015-Apr-24 05:33N 53°35' E 008°33'0 0.0
2015-Apr-24 04:33N 53°35' E 008°33'0 0.0
2015-Apr-24 03:33N 53°35' E 008°33'0 0.0
2015-Apr-24 02:33N 53°35' E 008°33'0 0.0
2015-Apr-24 01:33N 53°35' E 008°33'0 0.0
2015-Apr-24 00:33N 53°35' E 008°33'0 0.0
2015-Apr-23 23:33N 53°35' E 008°33'0 0.0
2015-Apr-23 22:33N 53°35' E 008°33'0 0.0
2015-Apr-23 21:33N 53°35' E 008°33'0 0.0
2015-Apr-23 20:33N 53°35' E 008°33'0 0.0
2015-Apr-23 19:33N 53°35' E 008°33'0 0.0
2015-Apr-23 18:34N 53°35' E 008°33'0 0.0
2015-Apr-23 17:33N 53°35' E 008°33'0 0.0
2015-Apr-23 16:33N 53°35' E 008°33'0 0.0
2015-Apr-23 15:33N 53°35' E 008°33'0 0.0
2015-Apr-23 14:33N 53°35' E 008°33'0 0.3
2015-Apr-23 13:33N 53°34' E 008°34'0 0.0
2015-Apr-23 12:33N 53°35' E 008°34'0 0.0
2015-Apr-23 11:33N 53°35' E 008°34'0 0.0
2015-Apr-23 10:33N 53°35' E 008°34'0 0.0
2015-Apr-23 09:33N 53°35' E 008°34'0 0.0
2015-Apr-23 08:33N 53°35' E 008°34'0 0.0
2015-Apr-23 07:33N 53°35' E 008°34'0 0.0
2015-Apr-23 06:33N 53°35' E 008°34'0 0.0
2015-Apr-23 05:33N 53°35' E 008°34'0 0.0
2015-Apr-23 04:33N 53°35' E 008°34'0 0.0
2015-Apr-23 03:33N 53°35' E 008°34'0 0.0
2015-Apr-23 02:33N 53°35' E 008°34'0 0.0
2015-Apr-23 01:33N 53°35' E 008°34'0 0.0
2015-Apr-23 00:33N 53°35' E 008°34'0 0.0
2015-Apr-22 23:33N 53°35' E 008°34'0 0.0
2015-Apr-22 22:33N 53°35' E 008°34'0 0.0
2015-Apr-22 21:33N 53°35' E 008°34'0 0.0
2015-Apr-22 20:33N 53°35' E 008°34'0 0.5
2015-Apr-22 19:33N 53°34' E 008°33'2 1.5
2015-Apr-22 18:33N 53°35' E 008°31'9 9.3
2015-Apr-22 17:33N 53°42' E 008°20'1211.8
2015-Apr-22 16:33N 53°50' E 008°05'1111.2
2015-Apr-22 15:34N 53°52' E 007°47'3 3.4
2015-Apr-22 14:33N 53°52' E 007°41'1 1.2
2015-Apr-22 13:33N 53°53' E 007°40'6 6.1
2015-Apr-22 12:33N 53°55' E 007°30'1212.0
2015-Apr-22 11:33N 53°52' E 007°11'1514.7
2015-Apr-22 10:33N 53°48' E 006°46'1514.6
2015-Apr-22 09:31N 53°45' E 006°22'1414.1
2015-Apr-22 08:33N 53°41' E 005°60'1414.4
2015-Apr-22 07:33N 53°36' E 005°37'1514.6
2015-Apr-22 06:33N 53°31' E 005°14'1514.6
2015-Apr-22 05:33N 53°26' E 004°51'1313.3
2015-Apr-22 04:33N 53°15' E 004°36'1313.4
2015-Apr-22 03:33N 53°04' E 004°25'1413.4
2015-Apr-22 02:32N 52°52' E 004°15'1313.4
2015-Apr-22 01:32N 52°42' E 004°00'1313.3
2015-Apr-22 00:33N 52°32' E 003°46'1313.1
2015-Apr-21 23:33N 52°23' E 003°30'1312.8
2015-Apr-21 22:33N 52°14' E 003°15'1212.5
2015-Apr-21 21:33N 52°05' E 003°01'1312.8
2015-Apr-21 20:33N 51°54' E 002°50'1212.3
2015-Apr-21 19:33N 51°46' E 002°36'1514.5
2015-Apr-21 18:34N 51°34' E 002°22'1313.0
2015-Apr-21 17:33N 51°22' E 002°14'1413.8
2015-Apr-21 16:33N 51°23' E 002°36'1010.2
2015-Apr-21 15:33N 51°25' E 002°52'1010.1
2015-Apr-21 14:33N 51°24' E 003°09'4 4.4
2015-Apr-21 13:33N 51°20' E 003°13'0 0.2
2015-Apr-21 12:33N 51°20' E 003°13'2 2.0
2015-Apr-21 11:33N 51°18' E 003°14'0 0.0
2015-Apr-21 10:33N 51°18' E 003°14'0 0.0
2015-Apr-21 09:33N 51°18' E 003°14'0 0.0
2015-Apr-21 08:33N 51°18' E 003°14'0 0.0
2015-Apr-21 07:33N 51°18' E 003°14'0 0.0
2015-Apr-21 06:33N 51°18' E 003°14'0 0.0
2015-Apr-21 05:33N 51°18' E 003°14'0 0.0
2015-Apr-21 04:33N 51°18' E 003°14'0 0.0
2015-Apr-21 03:33N 51°18' E 003°14'0 0.0
2015-Apr-21 02:33N 51°18' E 003°14'0 0.0
2015-Apr-21 01:30N 51°18' E 003°14'0 0.0
2015-Apr-21 00:33N 51°18' E 003°14'0 0.0
2015-Apr-20 23:33N 51°18' E 003°14'0 0.0
2015-Apr-20 22:33N 51°18' E 003°14'0 0.0
2015-Apr-20 21:33N 51°18' E 003°14'0 0.0
2015-Apr-20 19:33N 51°18' E 003°14'0 0.0
2015-Apr-20 18:27N 51°18' E 003°14'0 0.0
2015-Apr-20 17:33N 51°18' E 003°14'0 0.0
2015-Apr-20 16:33N 51°18' E 003°14'0 0.2
2015-Apr-20 15:33N 51°18' E 003°14'0 0.2
2015-Apr-20 14:32N 51°18' E 003°14'0 0.0
2015-Apr-20 13:30N 51°18' E 003°14'0 0.0
2015-Apr-20 12:32N 51°18' E 003°14'0 0.0
2015-Apr-20 11:32N 51°18' E 003°14'0 0.0
2015-Apr-20 10:32N 51°18' E 003°14'0 0.0
2015-Apr-20 09:32N 51°18' E 003°14'0 0.0
2015-Apr-20 08:32N 51°18' E 003°14'0 0.0
2015-Apr-20 07:32N 51°18' E 003°14'0 0.0
2015-Apr-20 06:33N 51°18' E 003°14'0 0.0
2015-Apr-20 05:32N 51°18' E 003°14'0 0.0
2015-Apr-20 04:32N 51°18' E 003°14'0 0.0
2015-Apr-20 03:32N 51°18' E 003°14'0 0.0
2015-Apr-20 02:32N 51°18' E 003°14'2 1.6
2015-Apr-20 01:33N 51°20' E 003°13'0 0.0
2015-Apr-20 00:33N 51°20' E 003°13'6 5.9
2015-Apr-19 23:33N 51°24' E 003°06'1313.3
2015-Apr-19 22:33N 51°21' E 002°45'9 8.8
2015-Apr-19 21:33N 51°22' E 002°31'1313.2
2015-Apr-19 20:33N 51°15' E 002°13'1413.5
2015-Apr-19 19:33N 51°09' E 001°54'1313.3
2015-Apr-19 18:34N 51°00' E 001°37'1313.1
2015-Apr-19 17:33N 50°50' E 001°25'1413.9
2015-Apr-19 16:32N 50°38' E 001°13'  
2015-Apr-17 07:30N 50°57' W 006°16'12511.4
2015-Apr-16 20:34N 51°25' W 003°02'1212.5
2015-Apr-16 19:33N 51°30' W 002°44'0 0.4
2015-Apr-16 18:33N 51°30' W 002°43'0 0.0
2015-Apr-16 17:33N 51°30' W 002°43'0 0.0
2015-Apr-16 16:33N 51°30' W 002°43'0 0.0
2015-Apr-16 15:33N 51°30' W 002°43'0 0.0
2015-Apr-16 14:33N 51°30' W 002°43'0 0.0
2015-Apr-16 13:33N 51°30' W 002°43'0 0.0
2015-Apr-16 12:33N 51°30' W 002°43'0 0.0
2015-Apr-16 11:33N 51°30' W 002°43'0 0.0
2015-Apr-16 10:33N 51°30' W 002°43'0 0.0
2015-Apr-16 09:33N 51°30' W 002°43'0 0.0
2015-Apr-16 08:33N 51°30' W 002°43'0 0.0
2015-Apr-16 07:33N 51°30' W 002°43'0 0.0
2015-Apr-16 06:33N 51°30' W 002°43'1 0.8
2015-Apr-16 05:33N 51°30' W 002°44'10 9.8
2015-Apr-16 04:33N 51°27' W 002°59'1413.5
2015-Apr-16 03:33N 51°20' W 003°18'38 8.7
2015-Apr-15 23:14N 51°19' W 004°18'2011.7
2015-Apr-15 21:30N 51°19' W 004°51'1210.7
2015-Apr-15 20:24N 51°14' W 005°08'910.8
2015-Apr-15 19:33N 51°09' W 005°19'1110.6
2015-Apr-15 18:33N 51°02' W 005°33'1110.6
2015-Apr-15 17:34N 50°56' W 005°46'1212.0
2015-Apr-15 16:33N 50°48' W 006°01'1212.5
2015-Apr-15 15:33N 50°41' W 006°17'1412.7
2015-Apr-15 14:29N 50°32' W 006°34'1212.7
2015-Apr-15 13:33N 50°22' W 006°43'1313.1
2015-Apr-15 12:33N 50°10' W 006°49'1313.0
2015-Apr-15 11:33N 49°57' W 006°57'1312.7
2015-Apr-15 10:33N 49°46' W 007°03'1212.3
2015-Apr-15 09:33N 49°34' W 007°10'1212.0
2015-Apr-15 08:33N 49°23' W 007°16'1211.7
2015-Apr-15 07:34N 49°12' W 007°23'1211.6
2015-Apr-15 06:33N 49°01' W 007°29'  

Dump ship's entire track history